sensor_id;sensor_type;location;lat;lon;timestamp;P1;durP1;ratioP1;P2;durP2;ratioP2
82005;SDS011;71529;47.484;19.064;2023-08-12T00:00:22;4.32;;;2.90;;
82005;SDS011;71529;47.484;19.064;2023-08-12T00:02:50;9.77;;;3.25;;
82005;SDS011;71529;47.484;19.064;2023-08-12T00:05:19;6.03;;;2.92;;
82005;SDS011;71529;47.484;19.064;2023-08-12T00:07:47;3.85;;;2.90;;
82005;SDS011;71529;47.484;19.064;2023-08-12T00:10:16;5.05;;;2.83;;
82005;SDS011;71529;47.484;19.064;2023-08-12T00:12:44;5.85;;;3.05;;
82005;SDS011;71529;47.484;19.064;2023-08-12T00:15:13;6.32;;;2.92;;
82005;SDS011;71529;47.484;19.064;2023-08-12T00:17:41;5.00;;;3.50;;
82005;SDS011;71529;47.484;19.064;2023-08-12T00:20:10;8.10;;;3.38;;
82005;SDS011;71529;47.484;19.064;2023-08-12T00:22:39;6.28;;;3.22;;
82005;SDS011;71529;47.484;19.064;2023-08-12T00:25:08;5.30;;;3.05;;
82005;SDS011;71529;47.484;19.064;2023-08-12T00:27:36;5.38;;;3.20;;
82005;SDS011;71529;47.484;19.064;2023-08-12T00:30:05;7.65;;;3.45;;
82005;SDS011;71529;47.484;19.064;2023-08-12T00:32:36;5.85;;;3.08;;
82005;SDS011;71529;47.484;19.064;2023-08-12T00:35:05;6.22;;;3.40;;
82005;SDS011;71529;47.484;19.064;2023-08-12T00:37:33;7.63;;;3.25;;
82005;SDS011;71529;47.484;19.064;2023-08-12T00:40:01;6.05;;;4.10;;
82005;SDS011;71529;47.484;19.064;2023-08-12T00:42:30;6.47;;;3.78;;
82005;SDS011;71529;47.484;19.064;2023-08-12T00:44:58;9.35;;;3.05;;
82005;SDS011;71529;47.484;19.064;2023-08-12T00:47:26;6.03;;;3.20;;
82005;SDS011;71529;47.484;19.064;2023-08-12T00:49:58;8.23;;;3.85;;
82005;SDS011;71529;47.484;19.064;2023-08-12T00:52:26;8.02;;;3.67;;
82005;SDS011;71529;47.484;19.064;2023-08-12T00:54:54;6.47;;;3.22;;
82005;SDS011;71529;47.484;19.064;2023-08-12T00:57:23;6.00;;;3.38;;
82005;SDS011;71529;47.484;19.064;2023-08-12T00:59:51;6.40;;;3.40;;
82005;SDS011;71529;47.484;19.064;2023-08-12T01:02:20;9.00;;;4.40;;
82005;SDS011;71529;47.484;19.064;2023-08-12T01:04:48;6.60;;;3.55;;
82005;SDS011;71529;47.484;19.064;2023-08-12T01:07:18;5.38;;;3.92;;
82005;SDS011;71529;47.484;19.064;2023-08-12T01:09:46;7.63;;;4.38;;
82005;SDS011;71529;47.484;19.064;2023-08-12T01:12:16;7.63;;;3.33;;
82005;SDS011;71529;47.484;19.064;2023-08-12T01:14:51;5.55;;;3.83;;
82005;SDS011;71529;47.484;19.064;2023-08-12T01:17:26;5.95;;;3.78;;
82005;SDS011;71529;47.484;19.064;2023-08-12T01:19:57;4.07;;;3.15;;
82005;SDS011;71529;47.484;19.064;2023-08-12T01:22:28;4.38;;;3.10;;
82005;SDS011;71529;47.484;19.064;2023-08-12T01:25:01;8.27;;;3.40;;
82005;SDS011;71529;47.484;19.064;2023-08-12T01:27:29;7.13;;;3.58;;
82005;SDS011;71529;47.484;19.064;2023-08-12T01:29:57;4.28;;;3.30;;
82005;SDS011;71529;47.484;19.064;2023-08-12T01:32:28;5.53;;;3.80;;
82005;SDS011;71529;47.484;19.064;2023-08-12T01:35:03;5.95;;;2.83;;
82005;SDS011;71529;47.484;19.064;2023-08-12T01:37:36;5.00;;;3.20;;
82005;SDS011;71529;47.484;19.064;2023-08-12T01:40:07;7.22;;;3.20;;
82005;SDS011;71529;47.484;19.064;2023-08-12T01:42:38;5.15;;;3.00;;
82005;SDS011;71529;47.484;19.064;2023-08-12T01:45:07;5.95;;;3.25;;
82005;SDS011;71529;47.484;19.064;2023-08-12T01:47:36;6.18;;;3.20;;
82005;SDS011;71529;47.484;19.064;2023-08-12T01:50:04;5.65;;;3.30;;
82005;SDS011;71529;47.484;19.064;2023-08-12T01:52:33;5.15;;;3.20;;
82005;SDS011;71529;47.484;19.064;2023-08-12T01:55:01;7.25;;;3.70;;
82005;SDS011;71529;47.484;19.064;2023-08-12T01:57:32;5.80;;;3.35;;
82005;SDS011;71529;47.484;19.064;2023-08-12T02:00:00;3.63;;;3.00;;
82005;SDS011;71529;47.484;19.064;2023-08-12T02:02:28;6.72;;;3.38;;
82005;SDS011;71529;47.484;19.064;2023-08-12T02:04:56;5.90;;;3.38;;
82005;SDS011;71529;47.484;19.064;2023-08-12T02:07:25;3.58;;;3.15;;
82005;SDS011;71529;47.484;19.064;2023-08-12T02:09:53;8.20;;;3.22;;
82005;SDS011;71529;47.484;19.064;2023-08-12T02:12:21;9.50;;;3.55;;
82005;SDS011;71529;47.484;19.064;2023-08-12T02:14:50;7.47;;;3.40;;
82005;SDS011;71529;47.484;19.064;2023-08-12T02:17:18;10.38;;;3.47;;
82005;SDS011;71529;47.484;19.064;2023-08-12T02:19:46;4.95;;;3.30;;
82005;SDS011;71529;47.484;19.064;2023-08-12T02:22:14;5.45;;;3.22;;
82005;SDS011;71529;47.484;19.064;2023-08-12T02:24:42;5.50;;;3.20;;
82005;SDS011;71529;47.484;19.064;2023-08-12T02:27:10;4.55;;;3.35;;
82005;SDS011;71529;47.484;19.064;2023-08-12T02:29:39;5.65;;;3.15;;
82005;SDS011;71529;47.484;19.064;2023-08-12T02:32:08;5.38;;;3.20;;
82005;SDS011;71529;47.484;19.064;2023-08-12T02:34:36;5.55;;;3.85;;
82005;SDS011;71529;47.484;19.064;2023-08-12T02:37:04;8.02;;;3.60;;
82005;SDS011;71529;47.484;19.064;2023-08-12T02:39:32;5.18;;;3.13;;
82005;SDS011;71529;47.484;19.064;2023-08-12T02:42:00;6.85;;;3.67;;
82005;SDS011;71529;47.484;19.064;2023-08-12T02:44:28;5.25;;;3.30;;
82005;SDS011;71529;47.484;19.064;2023-08-12T02:46:56;5.65;;;3.78;;
82005;SDS011;71529;47.484;19.064;2023-08-12T02:49:26;7.10;;;3.35;;
82005;SDS011;71529;47.484;19.064;2023-08-12T02:51:54;7.45;;;3.83;;
82005;SDS011;71529;47.484;19.064;2023-08-12T02:54:22;8.07;;;3.30;;
82005;SDS011;71529;47.484;19.064;2023-08-12T02:56:50;8.73;;;3.60;;
82005;SDS011;71529;47.484;19.064;2023-08-12T02:59:18;9.32;;;4.57;;
82005;SDS011;71529;47.484;19.064;2023-08-12T03:01:46;8.25;;;5.05;;
82005;SDS011;71529;47.484;19.064;2023-08-12T03:04:14;6.45;;;4.20;;
82005;SDS011;71529;47.484;19.064;2023-08-12T03:06:44;4.88;;;3.78;;
82005;SDS011;71529;47.484;19.064;2023-08-12T03:09:12;6.90;;;3.60;;
82005;SDS011;71529;47.484;19.064;2023-08-12T03:11:43;7.25;;;3.22;;
82005;SDS011;71529;47.484;19.064;2023-08-12T03:14:11;9.98;;;3.30;;
82005;SDS011;71529;47.484;19.064;2023-08-12T03:16:39;7.07;;;3.13;;
82005;SDS011;71529;47.484;19.064;2023-08-12T03:19:07;3.92;;;3.20;;
82005;SDS011;71529;47.484;19.064;2023-08-12T03:21:35;4.85;;;3.25;;
82005;SDS011;71529;47.484;19.064;2023-08-12T03:24:05;6.32;;;3.03;;
82005;SDS011;71529;47.484;19.064;2023-08-12T03:26:33;5.05;;;3.22;;
82005;SDS011;71529;47.484;19.064;2023-08-12T03:29:01;8.23;;;3.80;;
82005;SDS011;71529;47.484;19.064;2023-08-12T03:31:30;9.57;;;3.80;;
82005;SDS011;71529;47.484;19.064;2023-08-12T03:33:58;4.95;;;3.33;;
82005;SDS011;71529;47.484;19.064;2023-08-12T03:36:26;4.03;;;3.03;;
82005;SDS011;71529;47.484;19.064;2023-08-12T03:38:54;9.60;;;3.42;;
82005;SDS011;71529;47.484;19.064;2023-08-12T03:41:23;6.65;;;3.42;;
82005;SDS011;71529;47.484;19.064;2023-08-12T03:43:51;5.63;;;3.50;;
82005;SDS011;71529;47.484;19.064;2023-08-12T03:46:20;9.88;;;3.80;;
82005;SDS011;71529;47.484;19.064;2023-08-12T03:48:48;6.80;;;3.35;;
82005;SDS011;71529;47.484;19.064;2023-08-12T03:51:16;5.65;;;3.17;;
82005;SDS011;71529;47.484;19.064;2023-08-12T03:53:44;4.28;;;3.13;;
82005;SDS011;71529;47.484;19.064;2023-08-12T03:56:12;4.80;;;3.20;;
82005;SDS011;71529;47.484;19.064;2023-08-12T03:58:44;3.90;;;3.20;;
82005;SDS011;71529;47.484;19.064;2023-08-12T04:01:12;8.55;;;3.17;;
82005;SDS011;71529;47.484;19.064;2023-08-12T04:03:40;3.90;;;2.80;;
82005;SDS011;71529;47.484;19.064;2023-08-12T04:06:09;4.32;;;2.92;;
82005;SDS011;71529;47.484;19.064;2023-08-12T04:08:37;4.28;;;3.33;;
82005;SDS011;71529;47.484;19.064;2023-08-12T04:11:05;4.65;;;2.90;;
82005;SDS011;71529;47.484;19.064;2023-08-12T04:13:33;5.50;;;3.08;;
82005;SDS011;71529;47.484;19.064;2023-08-12T04:16:03;4.07;;;2.78;;
82005;SDS011;71529;47.484;19.064;2023-08-12T04:18:31;5.53;;;3.28;;
82005;SDS011;71529;47.484;19.064;2023-08-12T04:20:59;6.88;;;3.03;;
82005;SDS011;71529;47.484;19.064;2023-08-12T04:23:28;4.65;;;3.28;;
82005;SDS011;71529;47.484;19.064;2023-08-12T04:25:56;3.63;;;3.08;;
82005;SDS011;71529;47.484;19.064;2023-08-12T04:28:24;4.18;;;2.97;;
82005;SDS011;71529;47.484;19.064;2023-08-12T04:30:52;3.83;;;3.05;;
82005;SDS011;71529;47.484;19.064;2023-08-12T04:33:22;7.55;;;3.10;;
82005;SDS011;71529;47.484;19.064;2023-08-12T04:35:50;6.45;;;5.07;;
82005;SDS011;71529;47.484;19.064;2023-08-12T04:38:20;9.73;;;4.32;;
82005;SDS011;71529;47.484;19.064;2023-08-12T04:40:48;4.13;;;3.55;;
82005;SDS011;71529;47.484;19.064;2023-08-12T04:43:16;4.45;;;3.47;;
82005;SDS011;71529;47.484;19.064;2023-08-12T04:45:44;6.28;;;3.30;;
82005;SDS011;71529;47.484;19.064;2023-08-12T04:48:13;6.72;;;4.05;;
82005;SDS011;71529;47.484;19.064;2023-08-12T04:50:43;5.55;;;3.33;;
82005;SDS011;71529;47.484;19.064;2023-08-12T04:53:11;5.45;;;3.45;;
82005;SDS011;71529;47.484;19.064;2023-08-12T04:55:39;3.50;;;2.92;;
82005;SDS011;71529;47.484;19.064;2023-08-12T04:58:09;5.45;;;3.58;;
82005;SDS011;71529;47.484;19.064;2023-08-12T05:00:37;6.40;;;3.17;;
82005;SDS011;71529;47.484;19.064;2023-08-12T05:03:06;5.32;;;3.20;;
82005;SDS011;71529;47.484;19.064;2023-08-12T05:05:34;6.95;;;3.28;;
82005;SDS011;71529;47.484;19.064;2023-08-12T05:08:03;5.80;;;2.90;;
82005;SDS011;71529;47.484;19.064;2023-08-12T05:10:31;4.43;;;3.10;;
82005;SDS011;71529;47.484;19.064;2023-08-12T05:12:59;5.80;;;3.67;;
82005;SDS011;71529;47.484;19.064;2023-08-12T05:15:27;9.20;;;3.90;;
82005;SDS011;71529;47.484;19.064;2023-08-12T05:17:55;4.78;;;3.47;;
82005;SDS011;71529;47.484;19.064;2023-08-12T05:20:24;7.38;;;3.60;;
82005;SDS011;71529;47.484;19.064;2023-08-12T05:22:52;7.13;;;3.97;;
82005;SDS011;71529;47.484;19.064;2023-08-12T05:25:21;6.45;;;3.92;;
82005;SDS011;71529;47.484;19.064;2023-08-12T05:27:49;5.65;;;3.78;;
82005;SDS011;71529;47.484;19.064;2023-08-12T05:30:17;14.93;;;5.60;;
82005;SDS011;71529;47.484;19.064;2023-08-12T05:32:45;10.60;;;4.80;;
82005;SDS011;71529;47.484;19.064;2023-08-12T05:35:14;7.80;;;4.18;;
82005;SDS011;71529;47.484;19.064;2023-08-12T05:37:42;8.45;;;3.97;;
82005;SDS011;71529;47.484;19.064;2023-08-12T05:40:10;5.40;;;3.13;;
82005;SDS011;71529;47.484;19.064;2023-08-12T05:42:40;4.78;;;2.88;;
82005;SDS011;71529;47.484;19.064;2023-08-12T05:45:08;3.85;;;3.08;;
82005;SDS011;71529;47.484;19.064;2023-08-12T05:47:37;6.05;;;3.88;;
82005;SDS011;71529;47.484;19.064;2023-08-12T05:50:05;6.57;;;3.20;;
82005;SDS011;71529;47.484;19.064;2023-08-12T05:52:34;4.40;;;3.08;;
82005;SDS011;71529;47.484;19.064;2023-08-12T05:55:03;3.10;;;2.80;;
82005;SDS011;71529;47.484;19.064;2023-08-12T05:57:31;3.80;;;3.00;;
82005;SDS011;71529;47.484;19.064;2023-08-12T06:00:01;4.22;;;2.75;;
82005;SDS011;71529;47.484;19.064;2023-08-12T06:02:30;4.45;;;2.90;;
82005;SDS011;71529;47.484;19.064;2023-08-12T06:04:59;6.53;;;3.20;;
82005;SDS011;71529;47.484;19.064;2023-08-12T06:07:27;3.63;;;3.00;;
82005;SDS011;71529;47.484;19.064;2023-08-12T06:09:55;6.22;;;2.97;;
82005;SDS011;71529;47.484;19.064;2023-08-12T06:12:23;4.47;;;3.45;;
82005;SDS011;71529;47.484;19.064;2023-08-12T06:14:51;6.75;;;3.60;;
82005;SDS011;71529;47.484;19.064;2023-08-12T06:17:20;8.65;;;3.40;;
82005;SDS011;71529;47.484;19.064;2023-08-12T06:19:48;3.30;;;2.95;;
82005;SDS011;71529;47.484;19.064;2023-08-12T06:22:16;4.75;;;3.30;;
82005;SDS011;71529;47.484;19.064;2023-08-12T06:24:44;5.65;;;3.40;;
82005;SDS011;71529;47.484;19.064;2023-08-12T06:27:12;4.00;;;3.35;;
82005;SDS011;71529;47.484;19.064;2023-08-12T06:29:40;4.78;;;2.60;;
82005;SDS011;71529;47.484;19.064;2023-08-12T06:32:09;6.78;;;3.35;;
82005;SDS011;71529;47.484;19.064;2023-08-12T06:34:41;6.22;;;2.90;;
82005;SDS011;71529;47.484;19.064;2023-08-12T06:37:09;5.82;;;3.15;;
82005;SDS011;71529;47.484;19.064;2023-08-12T06:39:37;8.02;;;2.72;;
82005;SDS011;71529;47.484;19.064;2023-08-12T06:42:05;5.15;;;3.15;;
82005;SDS011;71529;47.484;19.064;2023-08-12T06:44:33;8.05;;;3.53;;
82005;SDS011;71529;47.484;19.064;2023-08-12T06:47:01;4.97;;;3.22;;
82005;SDS011;71529;47.484;19.064;2023-08-12T06:49:29;7.95;;;3.05;;
82005;SDS011;71529;47.484;19.064;2023-08-12T06:51:59;4.63;;;2.85;;
82005;SDS011;71529;47.484;19.064;2023-08-12T06:54:27;5.57;;;3.22;;
82005;SDS011;71529;47.484;19.064;2023-08-12T06:56:55;4.05;;;2.80;;
82005;SDS011;71529;47.484;19.064;2023-08-12T06:59:23;5.15;;;2.85;;
82005;SDS011;71529;47.484;19.064;2023-08-12T07:01:51;4.38;;;2.85;;
82005;SDS011;71529;47.484;19.064;2023-08-12T07:04:19;3.22;;;2.47;;
82005;SDS011;71529;47.484;19.064;2023-08-12T07:06:47;7.55;;;3.53;;
82005;SDS011;71529;47.484;19.064;2023-08-12T07:09:17;7.55;;;2.83;;
82005;SDS011;71529;47.484;19.064;2023-08-12T07:11:45;5.20;;;2.90;;
82005;SDS011;71529;47.484;19.064;2023-08-12T07:14:13;5.15;;;3.28;;
82005;SDS011;71529;47.484;19.064;2023-08-12T07:16:41;5.75;;;3.10;;
82005;SDS011;71529;47.484;19.064;2023-08-12T07:19:09;4.13;;;2.60;;
82005;SDS011;71529;47.484;19.064;2023-08-12T07:21:42;5.32;;;2.95;;
82005;SDS011;71529;47.484;19.064;2023-08-12T07:24:10;6.25;;;2.88;;
82005;SDS011;71529;47.484;19.064;2023-08-12T07:26:39;3.85;;;2.72;;
82005;SDS011;71529;47.484;19.064;2023-08-12T07:29:07;4.88;;;3.00;;
82005;SDS011;71529;47.484;19.064;2023-08-12T07:31:35;4.38;;;2.80;;
82005;SDS011;71529;47.484;19.064;2023-08-12T07:34:03;7.10;;;3.25;;
82005;SDS011;71529;47.484;19.064;2023-08-12T07:36:32;5.75;;;3.22;;
82005;SDS011;71529;47.484;19.064;2023-08-12T07:39:00;6.47;;;3.55;;
82005;SDS011;71529;47.484;19.064;2023-08-12T07:41:28;4.90;;;3.30;;
82005;SDS011;71529;47.484;19.064;2023-08-12T07:43:58;4.30;;;3.28;;
82005;SDS011;71529;47.484;19.064;2023-08-12T07:46:27;5.22;;;3.17;;
82005;SDS011;71529;47.484;19.064;2023-08-12T07:48:56;6.05;;;3.33;;
82005;SDS011;71529;47.484;19.064;2023-08-12T07:51:24;5.28;;;2.90;;
82005;SDS011;71529;47.484;19.064;2023-08-12T07:53:52;6.68;;;2.92;;
82005;SDS011;71529;47.484;19.064;2023-08-12T07:56:20;6.63;;;3.00;;
82005;SDS011;71529;47.484;19.064;2023-08-12T07:58:48;5.93;;;3.25;;
82005;SDS011;71529;47.484;19.064;2023-08-12T08:01:17;4.35;;;3.15;;
82005;SDS011;71529;47.484;19.064;2023-08-12T08:03:45;4.32;;;3.13;;
82005;SDS011;71529;47.484;19.064;2023-08-12T08:06:13;3.58;;;2.83;;
82005;SDS011;71529;47.484;19.064;2023-08-12T08:08:42;10.73;;;3.90;;
82005;SDS011;71529;47.484;19.064;2023-08-12T08:11:10;6.07;;;3.10;;
82005;SDS011;71529;47.484;19.064;2023-08-12T08:13:38;7.40;;;3.78;;
82005;SDS011;71529;47.484;19.064;2023-08-12T08:16:06;12.98;;;7.90;;
82005;SDS011;71529;47.484;19.064;2023-08-12T08:18:36;8.95;;;4.13;;
82005;SDS011;71529;47.484;19.064;2023-08-12T08:21:04;5.78;;;3.80;;
82005;SDS011;71529;47.484;19.064;2023-08-12T08:23:32;4.70;;;3.60;;
82005;SDS011;71529;47.484;19.064;2023-08-12T08:26:00;4.53;;;3.58;;
82005;SDS011;71529;47.484;19.064;2023-08-12T08:28:29;5.65;;;4.38;;
82005;SDS011;71529;47.484;19.064;2023-08-12T08:30:57;7.50;;;5.57;;
82005;SDS011;71529;47.484;19.064;2023-08-12T08:33:25;12.85;;;4.93;;
82005;SDS011;71529;47.484;19.064;2023-08-12T08:35:55;6.40;;;5.70;;
82005;SDS011;71529;47.484;19.064;2023-08-12T08:38:23;7.13;;;5.22;;
82005;SDS011;71529;47.484;19.064;2023-08-12T08:40:51;5.10;;;3.75;;
82005;SDS011;71529;47.484;19.064;2023-08-12T08:43:20;7.57;;;4.28;;
82005;SDS011;71529;47.484;19.064;2023-08-12T08:45:49;5.00;;;3.67;;
82005;SDS011;71529;47.484;19.064;2023-08-12T08:48:20;6.28;;;4.07;;
82005;SDS011;71529;47.484;19.064;2023-08-12T08:50:48;5.30;;;4.03;;
82005;SDS011;71529;47.484;19.064;2023-08-12T08:53:19;18.58;;;13.38;;
82005;SDS011;71529;47.484;19.064;2023-08-12T08:55:48;7.45;;;4.72;;
82005;SDS011;71529;47.484;19.064;2023-08-12T08:58:17;10.10;;;5.78;;
82005;SDS011;71529;47.484;19.064;2023-08-12T09:00:48;6.93;;;4.13;;
82005;SDS011;71529;47.484;19.064;2023-08-12T09:03:17;5.32;;;3.60;;
82005;SDS011;71529;47.484;19.064;2023-08-12T09:05:46;3.53;;;2.60;;
82005;SDS011;71529;47.484;19.064;2023-08-12T09:08:14;3.58;;;3.13;;
82005;SDS011;71529;47.484;19.064;2023-08-12T09:10:44;4.47;;;3.30;;
82005;SDS011;71529;47.484;19.064;2023-08-12T09:13:14;5.13;;;3.25;;
82005;SDS011;71529;47.484;19.064;2023-08-12T09:15:44;4.47;;;3.20;;
82005;SDS011;71529;47.484;19.064;2023-08-12T09:18:13;4.55;;;3.35;;
82005;SDS011;71529;47.484;19.064;2023-08-12T09:20:41;7.20;;;3.75;;
82005;SDS011;71529;47.484;19.064;2023-08-12T09:23:10;3.45;;;3.05;;
82005;SDS011;71529;47.484;19.064;2023-08-12T09:25:41;4.55;;;3.63;;
82005;SDS011;71529;47.484;19.064;2023-08-12T09:28:11;9.43;;;4.45;;
82005;SDS011;71529;47.484;19.064;2023-08-12T09:30:39;7.93;;;4.53;;
82005;SDS011;71529;47.484;19.064;2023-08-12T09:33:08;9.02;;;5.47;;
82005;SDS011;71529;47.484;19.064;2023-08-12T09:35:38;15.05;;;10.05;;
82005;SDS011;71529;47.484;19.064;2023-08-12T09:38:10;8.43;;;7.05;;
82005;SDS011;71529;47.484;19.064;2023-08-12T09:40:40;11.07;;;7.35;;
82005;SDS011;71529;47.484;19.064;2023-08-12T09:43:08;8.32;;;5.55;;
82005;SDS011;71529;47.484;19.064;2023-08-12T09:45:39;11.10;;;5.85;;
82005;SDS011;71529;47.484;19.064;2023-08-12T09:48:08;9.48;;;5.85;;
82005;SDS011;71529;47.484;19.064;2023-08-12T09:50:37;8.98;;;5.82;;
82005;SDS011;71529;47.484;19.064;2023-08-12T09:53:06;7.68;;;5.45;;
82005;SDS011;71529;47.484;19.064;2023-08-12T09:55:34;6.80;;;5.22;;
82005;SDS011;71529;47.484;19.064;2023-08-12T09:58:04;7.38;;;5.70;;
82005;SDS011;71529;47.484;19.064;2023-08-12T10:00:36;8.90;;;5.55;;
82005;SDS011;71529;47.484;19.064;2023-08-12T10:03:04;8.13;;;5.00;;
82005;SDS011;71529;47.484;19.064;2023-08-12T10:05:33;7.45;;;5.07;;
82005;SDS011;71529;47.484;19.064;2023-08-12T10:08:02;7.25;;;5.15;;
82005;SDS011;71529;47.484;19.064;2023-08-12T10:10:32;8.95;;;4.85;;
82005;SDS011;71529;47.484;19.064;2023-08-12T10:13:02;5.88;;;3.90;;
82005;SDS011;71529;47.484;19.064;2023-08-12T10:15:34;10.27;;;6.20;;
82005;SDS011;71529;47.484;19.064;2023-08-12T10:18:04;7.32;;;5.68;;
82005;SDS011;71529;47.484;19.064;2023-08-12T10:20:37;10.95;;;7.32;;
82005;SDS011;71529;47.484;19.064;2023-08-12T10:23:07;8.68;;;6.35;;
82005;SDS011;71529;47.484;19.064;2023-08-12T10:25:37;8.63;;;5.80;;
82005;SDS011;71529;47.484;19.064;2023-08-12T10:28:10;8.57;;;5.95;;
82005;SDS011;71529;47.484;19.064;2023-08-12T10:30:40;9.65;;;5.97;;
82005;SDS011;71529;47.484;19.064;2023-08-12T10:33:09;8.07;;;5.20;;
82005;SDS011;71529;47.484;19.064;2023-08-12T10:35:42;9.30;;;5.32;;
82005;SDS011;71529;47.484;19.064;2023-08-12T10:38:16;7.80;;;5.43;;
82005;SDS011;71529;47.484;19.064;2023-08-12T10:40:45;7.63;;;5.50;;
82005;SDS011;71529;47.484;19.064;2023-08-12T10:43:14;7.05;;;4.60;;
82005;SDS011;71529;47.484;19.064;2023-08-12T10:45:44;7.40;;;4.75;;
82005;SDS011;71529;47.484;19.064;2023-08-12T10:48:16;8.38;;;4.50;;
82005;SDS011;71529;47.484;19.064;2023-08-12T10:50:45;7.47;;;3.92;;
82005;SDS011;71529;47.484;19.064;2023-08-12T10:53:23;6.32;;;3.65;;
82005;SDS011;71529;47.484;19.064;2023-08-12T10:55:57;8.82;;;3.05;;
82005;SDS011;71529;47.484;19.064;2023-08-12T10:58:26;10.80;;;3.25;;
82005;SDS011;71529;47.484;19.064;2023-08-12T11:00:57;5.15;;;3.75;;
82005;SDS011;71529;47.484;19.064;2023-08-12T11:03:25;6.53;;;2.90;;
82005;SDS011;71529;47.484;19.064;2023-08-12T11:05:54;7.85;;;4.03;;
82005;SDS011;71529;47.484;19.064;2023-08-12T11:08:26;7.30;;;4.28;;
82005;SDS011;71529;47.484;19.064;2023-08-12T11:10:55;7.90;;;3.67;;
82005;SDS011;71529;47.484;19.064;2023-08-12T11:13:26;5.43;;;4.60;;
82005;SDS011;71529;47.484;19.064;2023-08-12T11:16:07;13.98;;;5.07;;
82005;SDS011;71529;47.484;19.064;2023-08-12T11:18:36;8.35;;;4.38;;
82005;SDS011;71529;47.484;19.064;2023-08-12T11:21:04;21.15;;;13.70;;
82005;SDS011;71529;47.484;19.064;2023-08-12T11:23:33;15.07;;;9.60;;
82005;SDS011;71529;47.484;19.064;2023-08-12T11:26:03;8.43;;;6.15;;
82005;SDS011;71529;47.484;19.064;2023-08-12T11:28:31;10.50;;;7.35;;
82005;SDS011;71529;47.484;19.064;2023-08-12T11:30:59;9.75;;;6.47;;
82005;SDS011;71529;47.484;19.064;2023-08-12T11:33:31;13.38;;;7.22;;
82005;SDS011;71529;47.484;19.064;2023-08-12T11:35:59;9.65;;;6.93;;
82005;SDS011;71529;47.484;19.064;2023-08-12T11:38:27;7.35;;;5.60;;
82005;SDS011;71529;47.484;19.064;2023-08-12T11:40:55;7.75;;;5.40;;
82005;SDS011;71529;47.484;19.064;2023-08-12T11:43:23;7.88;;;5.10;;
82005;SDS011;71529;47.484;19.064;2023-08-12T11:45:51;8.73;;;4.68;;
82005;SDS011;71529;47.484;19.064;2023-08-12T11:48:20;9.65;;;5.03;;
82005;SDS011;71529;47.484;19.064;2023-08-12T11:50:49;9.43;;;5.10;;
82005;SDS011;71529;47.484;19.064;2023-08-12T11:53:18;6.85;;;4.25;;
82005;SDS011;71529;47.484;19.064;2023-08-12T11:55:46;8.23;;;4.65;;
82005;SDS011;71529;47.484;19.064;2023-08-12T11:58:14;7.68;;;4.28;;
82005;SDS011;71529;47.484;19.064;2023-08-12T12:00:46;4.93;;;3.38;;
82005;SDS011;71529;47.484;19.064;2023-08-12T12:03:15;5.65;;;3.85;;
82005;SDS011;71529;47.484;19.064;2023-08-12T12:05:45;8.05;;;4.40;;
82005;SDS011;71529;47.484;19.064;2023-08-12T12:08:15;8.80;;;4.57;;
82005;SDS011;71529;47.484;19.064;2023-08-12T12:10:43;8.45;;;5.13;;
82005;SDS011;71529;47.484;19.064;2023-08-12T12:13:11;6.70;;;5.28;;
82005;SDS011;71529;47.484;19.064;2023-08-12T12:15:41;5.70;;;4.50;;
82005;SDS011;71529;47.484;19.064;2023-08-12T12:18:10;11.05;;;8.02;;
82005;SDS011;71529;47.484;19.064;2023-08-12T12:20:53;12.07;;;7.18;;
82005;SDS011;71529;47.484;19.064;2023-08-12T12:23:27;11.07;;;6.63;;
82005;SDS011;71529;47.484;19.064;2023-08-12T12:25:57;12.95;;;8.07;;
82005;SDS011;71529;47.484;19.064;2023-08-12T12:28:26;9.82;;;7.22;;
82005;SDS011;71529;47.484;19.064;2023-08-12T12:30:54;13.38;;;8.75;;
82005;SDS011;71529;47.484;19.064;2023-08-12T12:33:22;10.52;;;7.40;;
82005;SDS011;71529;47.484;19.064;2023-08-12T12:35:51;8.30;;;6.22;;
82005;SDS011;71529;47.484;19.064;2023-08-12T12:38:26;11.55;;;6.65;;
82005;SDS011;71529;47.484;19.064;2023-08-12T12:40:55;9.55;;;6.45;;
82005;SDS011;71529;47.484;19.064;2023-08-12T12:43:24;8.40;;;6.88;;
82005;SDS011;71529;47.484;19.064;2023-08-12T12:45:52;9.63;;;7.70;;
82005;SDS011;71529;47.484;19.064;2023-08-12T12:48:20;9.00;;;7.22;;
82005;SDS011;71529;47.484;19.064;2023-08-12T12:50:48;11.80;;;7.68;;
82005;SDS011;71529;47.484;19.064;2023-08-12T12:53:16;9.45;;;7.53;;
82005;SDS011;71529;47.484;19.064;2023-08-12T12:55:46;7.32;;;6.53;;
82005;SDS011;71529;47.484;19.064;2023-08-12T12:58:14;12.82;;;6.93;;
82005;SDS011;71529;47.484;19.064;2023-08-12T13:00:42;13.10;;;8.00;;
82005;SDS011;71529;47.484;19.064;2023-08-12T13:03:11;16.08;;;12.43;;
82005;SDS011;71529;47.484;19.064;2023-08-12T13:05:39;8.90;;;7.50;;
82005;SDS011;71529;47.484;19.064;2023-08-12T13:08:07;10.43;;;7.30;;
82005;SDS011;71529;47.484;19.064;2023-08-12T13:10:35;13.45;;;7.78;;
82005;SDS011;71529;47.484;19.064;2023-08-12T13:13:04;10.23;;;8.07;;
82005;SDS011;71529;47.484;19.064;2023-08-12T13:15:32;7.43;;;6.53;;
82005;SDS011;71529;47.484;19.064;2023-08-12T13:18:01;10.50;;;6.90;;
82005;SDS011;71529;47.484;19.064;2023-08-12T13:20:29;8.75;;;5.38;;
82005;SDS011;71529;47.484;19.064;2023-08-12T13:22:57;6.25;;;4.50;;
82005;SDS011;71529;47.484;19.064;2023-08-12T13:25:26;7.30;;;5.28;;
82005;SDS011;71529;47.484;19.064;2023-08-12T13:27:55;7.47;;;4.88;;
82005;SDS011;71529;47.484;19.064;2023-08-12T13:30:25;7.75;;;4.70;;
82005;SDS011;71529;47.484;19.064;2023-08-12T13:32:54;7.85;;;4.45;;
82005;SDS011;71529;47.484;19.064;2023-08-12T13:35:26;7.45;;;4.15;;
82005;SDS011;71529;47.484;19.064;2023-08-12T13:37:54;8.10;;;6.43;;
82005;SDS011;71529;47.484;19.064;2023-08-12T13:40:22;8.57;;;5.32;;
82005;SDS011;71529;47.484;19.064;2023-08-12T13:42:51;7.57;;;5.10;;
82005;SDS011;71529;47.484;19.064;2023-08-12T13:45:19;8.40;;;4.93;;
82005;SDS011;71529;47.484;19.064;2023-08-12T13:47:49;7.95;;;5.03;;
82005;SDS011;71529;47.484;19.064;2023-08-12T13:50:17;19.52;;;5.57;;
82005;SDS011;71529;47.484;19.064;2023-08-12T13:52:45;7.93;;;6.30;;
82005;SDS011;71529;47.484;19.064;2023-08-12T13:55:15;25.70;;;18.95;;
82005;SDS011;71529;47.484;19.064;2023-08-12T13:57:43;8.50;;;4.82;;
82005;SDS011;71529;47.484;19.064;2023-08-12T14:00:11;8.77;;;6.68;;
82005;SDS011;71529;47.484;19.064;2023-08-12T14:02:41;10.30;;;7.60;;
82005;SDS011;71529;47.484;19.064;2023-08-12T14:05:10;9.52;;;7.05;;
82005;SDS011;71529;47.484;19.064;2023-08-12T14:07:39;9.25;;;6.03;;
82005;SDS011;71529;47.484;19.064;2023-08-12T14:10:07;7.15;;;5.88;;
82005;SDS011;71529;47.484;19.064;2023-08-12T14:12:37;11.02;;;5.53;;
82005;SDS011;71529;47.484;19.064;2023-08-12T14:15:05;8.25;;;7.25;;
82005;SDS011;71529;47.484;19.064;2023-08-12T14:17:34;10.93;;;6.95;;
82005;SDS011;71529;47.484;19.064;2023-08-12T14:20:02;11.73;;;8.60;;
82005;SDS011;71529;47.484;19.064;2023-08-12T14:22:35;10.30;;;7.35;;
82005;SDS011;71529;47.484;19.064;2023-08-12T14:25:04;10.68;;;8.20;;
82005;SDS011;71529;47.484;19.064;2023-08-12T14:27:32;9.15;;;6.70;;
82005;SDS011;71529;47.484;19.064;2023-08-12T14:30:00;16.98;;;7.80;;
82005;SDS011;71529;47.484;19.064;2023-08-12T14:32:28;8.85;;;6.60;;
82005;SDS011;71529;47.484;19.064;2023-08-12T14:34:57;8.63;;;6.85;;
82005;SDS011;71529;47.484;19.064;2023-08-12T14:37:25;11.32;;;6.57;;
82005;SDS011;71529;47.484;19.064;2023-08-12T14:39:55;8.40;;;6.03;;
82005;SDS011;71529;47.484;19.064;2023-08-12T14:42:23;7.22;;;5.90;;